Time;durP1;ratioP1;P1;durP2;ratioP2;P2;SDS_P1;SDS_P2;PMS_P1;PMS_P2;Temp;Humidity;BMP_temperature;BMP_pressure;BME280_temperature;BME280_humidity;BME280_pressure;Samples;Min_cycle;Max_cycle;Signal;HPM_P1;HPM_P2
2022/01/11 00:08:34;;;;;;;109.82;37.10;;;;;;;;;;4241424;33;20132;-80
2022/01/11 00:11:30;;;;;;;108.60;38.73;;;;;;;;;;4242354;33;20056;-80
2022/01/11 00:13:55;;;;;;;111.90;39.13;;;;;;;;;;4242777;33;20594;-80
2022/01/11 00:16:39;;;;;;;;;;;;;;;;;;;;;
2022/01/11 00:25:21;;;;;;;95.53;38.53;;;;;;;;;;4275968;33;20096;-81
2022/01/11 00:27:57;;;;;;;;;;;;;;;;;;;;;
2022/01/11 00:36:19;;;;;;;100.72;39.78;;;;;;;;;;4361514;33;20131;-80
2022/01/11 00:48:26;;;;;;;109.90;39.33;;;;;;;;;;4273004;33;20060;-79
2022/01/11 00:53:37;;;;;;;108.53;38.97;;;;;;;;;;4270169;33;20152;-80
2022/01/11 01:02:54;;;;;;;124.68;40.17;;;;;;;;;;4258732;33;20368;-80
2022/01/11 01:05:22;;;;;;;114.47;40.90;;;;;;;;;;4249625;33;20060;-80
2022/01/11 01:08:09;;;;;;;104.18;38.45;;;;;;;;;;4272945;33;20030;-80
2022/01/11 01:10:37;;;;;;;114.07;40.28;;;;;;;;;;4310223;33;20032;-80
2022/01/11 01:16:10;;;;;;;107.97;38.60;;;;;;;;;;4333268;33;20062;-80
2022/01/11 01:24:28;;;;;;;129.20;44.65;;;;;;;;;;4316531;33;20020;-80
2022/01/11 01:30:48;;;;;;;138.07;46.67;;;;;;;;;;4346458;33;20063;-80
2022/01/11 01:33:32;;;;;;;150.83;48.67;;;;;;;;;;4322448;33;20104;-80
2022/01/11 01:36:08;;;;;;;154.90;47.13;;;;;;;;;;4347670;33;20028;-80
2022/01/11 01:47:14;;;;;;;133.20;46.05;;;;;;;;;;4287458;33;20154;-81
2022/01/11 01:55:59;;;;;;;121.78;42.47;;;;;;;;;;4272945;33;20111;-80
2022/01/11 01:58:51;;;;;;;108.30;41.92;;;;;;;;;;4301570;33;20066;-80
2022/01/11 02:01:50;;;;;;;116.18;41.53;;;;;;;;;;4309690;33;20995;-80
2022/01/11 02:04:21;;;;;;;112.05;41.67;;;;;;;;;;4294821;33;20062;-80
2022/01/11 02:09:44;;;;;;;97.40;37.50;;;;;;;;;;4347871;33;20035;-80
2022/01/11 02:12:09;;;;;;;103.05;39.45;;;;;;;;;;4347444;33;20020;-80
2022/01/11 02:14:34;;;;;;;;;;;;;;;;;;4347463;33;20054;-80
2022/01/11 02:17:12;;;;;;;;;;;;;;;;;;;;;
2022/01/11 02:19:38;;;;;;;106.80;38.13;;;;;;;;;;4347517;33;20058;-81
2022/01/11 02:22:03;;;;;;;;;;;;;;;;;;4347624;33;20036;-80
2022/01/11 02:25:25;;;;;;;99.60;39.58;;;;;;;;;;4347311;33;19938;-80
2022/01/11 02:28:17;;;;;;;100.47;38.22;;;;;;;;;;4313834;33;20037;-80
2022/01/11 02:30:41;;;;;;;102.87;40.67;;;;;;;;;;4314118;33;20072;-80
2022/01/11 02:33:15;;;;;;;;;;;;;;;;;;4335522;33;20114;-79
2022/01/11 02:36:13;;;;;;;95.60;39.90;;;;;;;;;;4346615;33;19954;-80
2022/01/11 02:38:47;;;;;;;102.50;38.00;;;;;;;;;;4345169;33;20078;-80
2022/01/11 02:41:44;;;;;;;106.05;40.20;;;;;;;;;;4345110;33;20131;-80
2022/01/11 02:44:17;;;;;;;93.03;36.08;;;;;;;;;;4346718;33;20070;-80
2022/01/11 02:46:42;;;;;;;97.22;36.85;;;;;;;;;;4348599;33;20020;-80
2022/01/11 02:49:14;;;;;;;;;;;;;;;;;;4349884;33;20549;-79
2022/01/11 02:52:07;;;;;;;102.28;37.78;;;;;;;;;;4349592;33;20481;-80
2022/01/11 02:54:46;;;;;;;104.50;38.72;;;;;;;;;;4348427;33;20102;-80
2022/01/11 03:16:21;;;;;;;;;;;;;;;;;;;;;
2022/01/11 03:19:19;;;;;;;94.93;39.53;;;;;;;;;;4329963;33;20066;-78
2022/01/11 03:22:07;;;;;;;93.50;37.53;;;;;;;;;;4335194;33;20105;-80
2022/01/11 03:24:54;;;;;;;94.65;38.35;;;;;;;;;;4342605;33;20055;-80
2022/01/11 03:27:41;;;;;;;98.75;37.40;;;;;;;;;;4346408;33;20032;-80
2022/01/11 03:30:48;;;;;;;93.45;39.47;;;;;;;;;;4346464;33;20111;-80
2022/01/11 03:33:41;;;;;;;85.05;34.67;;;;;;;;;;4340064;33;20031;-80
2022/01/11 03:36:40;;;;;;;93.57;38.58;;;;;;;;;;4346675;33;20055;-80
2022/01/11 03:42:43;;;;;;;100.82;40.00;;;;;;;;;;4300244;33;20424;-80
2022/01/11 03:45:20;;;;;;;92.70;38.72;;;;;;;;;;4299976;33;20048;-80
2022/01/11 03:54:43;;;;;;;95.70;39.90;;;;;;;;;;4345824;33;20105;-80
2022/01/11 03:57:09;;;;;;;88.43;37.78;;;;;;;;;;4332494;33;20385;-80
2022/01/11 03:59:44;;;;;;;;;;;;;;;;;;4345777;33;20089;-80
2022/01/11 04:24:40;;;;;;;104.28;39.22;;;;;;;;;;4255968;33;20100;-80
2022/01/11 04:30:57;;;;;;;106.32;41.08;;;;;;;;;;4256515;33;20098;-79
2022/01/11 04:36:16;;;;;;;100.93;42.65;;;;;;;;;;4256960;33;20068;-80
2022/01/11 04:39:07;;;;;;;101.97;38.72;;;;;;;;;;4250749;33;20140;-79
2022/01/11 04:42:14;;;;;;;;;;;;;;;;;;;;;
2022/01/11 04:44:51;;;;;;;108.65;41.28;;;;;;;;;;4256220;33;20046;-79
2022/01/11 04:47:56;;;;;;;106.80;43.03;;;;;;;;;;4245433;33;20049;-79
2022/01/11 04:51:06;;;;;;;;;;;;;;;;;;;;;
2022/01/11 05:05:51;;;;;;;115.28;44.15;;;;;;;;;;4304206;33;20044;-79
2022/01/11 05:08:50;;;;;;;;;;;;;;;;;;;;;
2022/01/11 05:35:55;;;;;;;;;;;;;;;;;;;;;
2022/01/11 05:47:57;;;;;;;107.35;41.47;;;;;;;;;;4219588;33;20064;-79
2022/01/11 05:54:01;;;;;;;102.05;40.97;;;;;;;;;;4272845;33;20452;-79
2022/01/11 05:56:50;;;;;;;116.65;43.38;;;;;;;;;;4261013;33;20075;-79
2022/01/11 05:59:15;;;;;;;105.22;44.80;;;;;;;;;;4305022;33;20070;-79
2022/01/11 06:10:10;;;;;;;114.53;44.45;;;;;;;;;;4347493;33;20062;-80
2022/01/11 06:12:43;;;;;;;;;;;;;;;;;;4347231;33;20036;-80
2022/01/11 06:15:19;;;;;;;113.93;42.25;;;;;;;;;;4346043;33;19948;-80
2022/01/11 06:17:46;;;;;;;112.65;43.83;;;;;;;;;;4342685;33;20032;-79
2022/01/11 06:20:14;;;;;;;103.80;41.55;;;;;;;;;;4347440;33;20450;-79
2022/01/11 06:25:38;;;;;;;105.12;43.30;;;;;;;;;;4313234;33;20056;-80
2022/01/11 06:28:41;;;;;;;103.35;41.83;;;;;;;;;;4344127;33;20434;-80
2022/01/11 06:31:15;;;;;;;97.82;40.17;;;;;;;;;;4300315;33;20032;-79
2022/01/11 06:33:43;;;;;;;101.10;44.42;;;;;;;;;;4301136;33;20455;-79
2022/01/11 06:43:12;;;;;;;;;;;;;;;;;;;;;
2022/01/11 06:45:39;;;;;;;93.47;38.45;;;;;;;;;;4256404;33;20034;-78
2022/01/11 06:48:14;;;;;;;85.85;38.85;;;;;;;;;;4315384;33;20090;-80
2022/01/11 06:50:48;;;;;;;82.40;37.00;;;;;;;;;;4324858;33;20032;-79
2022/01/11 06:59:24;;;;;;;81.97;34.30;;;;;;;;;;4329386;33;20069;-80
2022/01/11 07:02:16;;;;;;;71.65;33.78;;;;;;;;;;4343767;33;20437;-81
2022/01/11 07:05:07;;;;;;;74.82;36.30;;;;;;;;;;4336068;33;20020;-80
2022/01/11 07:10:45;;;;;;;70.28;33.80;;;;;;;;;;4359557;33;20078;-81
2022/01/11 07:19:19;;;;;;;64.97;33.60;;;;;;;;;;4341778;33;20429;-78
2022/01/11 07:21:45;;;;;;;77.80;33.58;;;;;;;;;;4345492;33;20040;-77
2022/01/11 07:24:14;;;;;;;;;;;;;;;;;;4345991;33;20035;-78
2022/01/11 07:26:51;;;;;;;69.75;33.08;;;;;;;;;;4345779;33;19938;-79
2022/01/11 07:32:50;;;;;;;59.88;29.98;;;;;;;;;;4345528;33;20177;-78
2022/01/11 07:39:15;;;;;;;;;;;;;;;;;;;;;
2022/01/11 07:46:00;;;;;;;54.00;27.67;;;;;;;;;;4256520;33;20460;-78
2022/01/11 07:51:02;;;;;;;;;;;;;;;;;;;;;
2022/01/11 07:53:59;;;;;;;62.62;29.25;;;;;;;;;;4257193;33;20030;-78
2022/01/11 07:56:27;;;;;;;63.13;30.12;;;;;;;;;;4319489;33;20031;-77
2022/01/11 07:58:55;;;;;;;61.65;29.90;;;;;;;;;;4330663;33;20058;-77
2022/01/11 08:01:29;;;;;;;62.85;28.80;;;;;;;;;;4330768;33;20112;-77
2022/01/11 08:03:55;;;;;;;60.90;30.45;;;;;;;;;;4331233;33;20024;-77
2022/01/11 08:06:20;;;;;;;;;;;;;;;;;;4342682;33;20066;-77
2022/01/11 08:08:48;;;;;;;62.06;29.04;;;;;;;;;;4346028;33;20301;-77
2022/01/11 08:11:16;;;;;;;63.58;30.65;;;;;;;;;;4344538;33;20027;-77
2022/01/11 08:13:57;;;;;;;60.83;30.45;;;;;;;;;;4345340;33;20078;-77
2022/01/11 08:19:41;;;;;;;62.58;29.25;;;;;;;;;;4336555;33;20043;-76
2022/01/11 08:28:04;;;;;;;62.60;30.45;;;;;;;;;;4346191;33;20050;-77
2022/01/11 08:30:30;;;;;;;63.83;29.20;;;;;;;;;;4344024;33;20079;-77
2022/01/11 08:32:58;;;;;;;;;;;;;;;;;;4333294;33;20344;-77
2022/01/11 08:35:55;;;;;;;65.53;33.13;;;;;;;;;;4334588;33;19953;-77
2022/01/11 08:38:32;;;;;;;63.65;29.65;;;;;;;;;;4309565;33;20374;-79
2022/01/11 08:41:27;;;;;;;56.28;28.52;;;;;;;;;;4334076;33;20028;-78
2022/01/11 08:44:20;;;;;;;63.28;27.83;;;;;;;;;;4330232;33;20059;-78
2022/01/11 08:46:54;;;;;;;60.15;30.00;;;;;;;;;;4333900;33;20460;-79
2022/01/11 08:49:20;;;;;;;50.92;26.48;;;;;;;;;;4333311;33;20044;-78
2022/01/11 08:51:56;;;;;;;;;;;;;;;;;;;;;
2022/01/11 08:54:46;;;;;;;56.47;27.48;;;;;;;;;;4328968;33;19993;-78
2022/01/11 08:57:40;;;;;;;49.25;24.33;;;;;;;;;;4332302;33;20047;-79
2022/01/11 09:00:09;;;;;;;46.75;25.48;;;;;;;;;;4331246;33;20449;-79
2022/01/11 09:02:37;;;;;;;48.47;25.10;;;;;;;;;;4332516;33;20465;-77
2022/01/11 09:05:03;;;;;;;42.80;24.45;;;;;;;;;;4334846;33;20520;-78
2022/01/11 09:07:28;;;;;;;44.65;23.10;;;;;;;;;;4333970;33;20460;-78
2022/01/11 09:12:50;;;;;;;45.05;23.85;;;;;;;;;;4327312;33;20314;-78
2022/01/11 09:15:15;;;;;;;46.33;21.62;;;;;;;;;;4332461;33;20111;-79
2022/01/11 09:17:41;;;;;;;;;;;;;;;;;;4332718;33;20025;-78
2022/01/11 09:20:08;;;;;;;43.45;22.13;;;;;;;;;;4333599;33;19942;-77
2022/01/11 09:23:18;;;;;;;43.92;23.60;;;;;;;;;;4333367;33;20044;-77
2022/01/11 09:25:38;;;;;;;41.42;23.12;;;;;;;;;;4330499;33;20106;-78
2022/01/11 09:28:27;;;;;;;40.53;21.25;;;;;;;;;;4333052;33;20036;-79
2022/01/11 09:30:52;;;;;;;39.47;20.00;;;;;;;;;;4331492;33;20442;-78
2022/01/11 09:33:17;;;;;;;;;;;;;;;;;;4334454;33;20027;-78
2022/01/11 09:35:57;;;;;;;38.30;20.06;;;;;;;;;;4333267;33;19975;-78
2022/01/11 09:38:27;;;;;;;40.53;21.95;;;;;;;;;;4333587;33;20451;-78
2022/01/11 09:49:56;;;;;;;43.67;20.35;;;;;;;;;;4330480;33;20063;-78
2022/01/11 09:52:45;;;;;;;37.22;19.95;;;;;;;;;;4330640;33;20538;-78
2022/01/11 09:55:29;;;;;;;;;;;;;;;;;;;;;
2022/01/11 09:58:03;;;;;;;40.58;20.95;;;;;;;;;;4347414;33;20035;-78
2022/01/11 10:00:28;;;;;;;34.88;19.08;;;;;;;;;;4347831;33;20480;-78
2022/01/11 10:02:53;;;;;;;;;;;;;;;;;;4347357;33;20039;-78
2022/01/11 10:05:37;;;;;;;37.10;21.26;;;;;;;;;;4346797;33;19939;-78
2022/01/11 10:08:45;;;;;;;32.90;19.17;;;;;;;;;;4347574;33;20380;-78
2022/01/11 10:11:26;;;;;;;35.10;20.48;;;;;;;;;;4346574;33;20058;-79
2022/01/11 10:14:24;;;;;;;35.30;19.35;;;;;;;;;;4346740;33;20102;-79
2022/01/11 10:16:50;;;;;;;36.25;18.67;;;;;;;;;;4329888;33;20085;-79
2022/01/11 10:19:33;;;;;;;;;;;;;;;;;;;;;
2022/01/11 10:22:37;;;;;;;36.05;18.17;;;;;;;;;;4315739;33;20044;-79
2022/01/11 10:25:58;;;;;;;;;;;;;;;;;;;;;
2022/01/11 10:31:14;;;;;;;34.13;19.33;;;;;;;;;;4287408;33;20043;-80
2022/01/11 10:36:48;;;;;;;33.38;16.37;;;;;;;;;;4287111;33;20498;-79
2022/01/11 10:39:32;;;;;;;35.65;18.73;;;;;;;;;;4286155;33;20059;-78
2022/01/11 10:42:02;;;;;;;31.73;17.15;;;;;;;;;;4292983;33;20064;-78
2022/01/11 10:44:59;;;;;;;37.58;18.65;;;;;;;;;;4347470;33;20036;-79
2022/01/11 10:50:44;;;;;;;32.85;16.20;;;;;;;;;;4312551;33;20480;-79
2022/01/11 10:56:38;;;;;;;;;;;;;;;;;;;;;
2022/01/11 10:59:43;;;;;;;33.53;18.45;;;;;;;;;;4315455;33;20043;-79
2022/01/11 11:02:14;;;;;;;38.17;18.83;;;;;;;;;;4313807;33;20029;-78
2022/01/11 11:04:39;;;;;;;29.85;17.30;;;;;;;;;;4316083;33;20028;-79
2022/01/11 11:07:04;;;;;;;;;;;;;;;;;;4329214;33;20058;-79
2022/01/11 11:25:02;;;;;;;27.83;16.27;;;;;;;;;;4321093;33;20081;-80
2022/01/11 11:27:36;;;;;;;27.42;13.57;;;;;;;;;;4345621;33;20051;-80
2022/01/11 11:32:53;;;;;;;23.08;14.35;;;;;;;;;;4346110;33;20114;-80
2022/01/11 11:35:19;;;;;;;25.73;16.37;;;;;;;;;;4346876;33;20032;-79
2022/01/11 11:40:44;;;;;;;22.00;12.30;;;;;;;;;;4335079;33;19969;-79
2022/01/11 11:43:14;;;;;;;21.30;12.60;;;;;;;;;;4331185;33;20054;-79
2022/01/11 11:45:42;;;;;;;22.67;13.95;;;;;;;;;;4331484;33;20019;-79
2022/01/11 12:03:59;;;;;;;22.85;12.98;;;;;;;;;;4245280;33;20066;-80
2022/01/11 12:06:26;;;;;;;23.65;12.63;;;;;;;;;;4233684;33;20100;-80
2022/01/11 12:09:15;;;;;;;25.02;12.77;;;;;;;;;;4309999;33;20031;-81
2022/01/11 12:12:14;;;;;;;21.45;11.63;;;;;;;;;;4346825;33;20390;-80
2022/01/11 12:18:14;;;;;;;22.00;13.07;;;;;;;;;;4286379;33;20052;-80
2022/01/11 12:20:42;;;;;;;34.15;13.98;;;;;;;;;;4300592;33;20079;-80
2022/01/11 12:26:26;;;;;;;;;;;;;;;;;;;;;
2022/01/11 12:32:07;;;;;;;24.27;13.62;;;;;;;;;;4307949;33;20550;-79
2022/01/11 12:34:51;;;;;;;21.73;13.10;;;;;;;;;;4333461;33;20087;-79
2022/01/11 12:49:54;;;;;;;;;;;;;;;;;;;;;
2022/01/11 13:32:37;;;;;;;28.30;12.40;;;;;;;;;;4233971;33;20075;-80
2022/01/11 13:35:20;;;;;;;22.20;12.77;;;;;;;;;;4320168;33;20024;-79
2022/01/11 13:38:05;;;;;;;25.10;12.68;;;;;;;;;;4328166;33;20063;-82
2022/01/11 13:40:34;;;;;;;20.10;11.77;;;;;;;;;;4327948;33;20032;-80
2022/01/11 13:43:13;;;;;;;24.00;12.68;;;;;;;;;;4326900;33;20055;-80
2022/01/11 13:49:02;;;;;;;23.10;13.18;;;;;;;;;;4286997;33;20500;-80
2022/01/11 13:51:57;;;;;;;25.85;12.50;;;;;;;;;;4288009;33;20024;-81
2022/01/11 13:58:14;;;;;;;30.52;11.60;;;;;;;;;;4243291;33;20064;-80
2022/01/11 14:00:41;;;;;;;26.55;12.80;;;;;;;;;;4272915;33;20032;-79
2022/01/11 14:03:14;;;;;;;32.10;13.30;;;;;;;;;;4287240;33;20037;-79
2022/01/11 14:06:21;;;;;;;18.27;10.95;;;;;;;;;;4311999;33;20024;-80
2022/01/11 14:08:55;;;;;;;23.27;11.98;;;;;;;;;;4334079;33;20086;-80
2022/01/11 14:11:36;;;;;;;23.50;12.10;;;;;;;;;;4333068;33;20099;-80
2022/01/11 14:23:40;;;;;;;20.95;12.05;;;;;;;;;;4260192;33;20465;-80
2022/01/11 14:33:13;;;;;;;;;;;;;;;;;;;;;
2022/01/11 14:39:01;;;;;;;22.73;13.23;;;;;;;;;;4230592;34;20080;-80
2022/01/11 14:41:54;;;;;;;23.58;12.40;;;;;;;;;;4256365;33;20033;-80
2022/01/11 14:44:22;;;;;;;32.35;13.90;;;;;;;;;;4326687;33;20059;-80
2022/01/11 14:53:11;;;;;;;25.67;13.52;;;;;;;;;;4301024;33;20115;-80
2022/01/11 14:59:01;;;;;;;;;;;;;;;;;;;;;
2022/01/11 15:04:22;;;;;;;;;;;;;;;;;;;;;
2022/01/11 15:07:11;;;;;;;24.40;12.60;;;;;;;;;;4346366;33;20319;-80
2022/01/11 15:09:41;;;;;;;27.33;12.70;;;;;;;;;;4346605;33;20031;-81
2022/01/11 15:12:35;;;;;;;23.67;12.93;;;;;;;;;;4347623;33;20086;-80
2022/01/11 15:15:03;;;;;;;25.60;13.93;;;;;;;;;;4346878;33;20028;-80
2022/01/11 15:17:29;;;;;;;29.65;13.93;;;;;;;;;;4346533;33;20331;-80
2022/01/11 15:19:56;;;;;;;26.17;14.13;;;;;;;;;;4346147;33;20407;-80
2022/01/11 15:25:31;;;;;;;19.62;11.48;;;;;;;;;;4315330;33;20444;-81
2022/01/11 15:31:20;;;;;;;29.40;12.48;;;;;;;;;;4346297;33;20030;-80
2022/01/11 15:34:06;;;;;;;25.73;12.75;;;;;;;;;;4346281;33;20035;-80
2022/01/11 15:40:21;;;;;;;26.15;13.70;;;;;;;;;;4300405;33;20367;-80
2022/01/11 15:42:49;;;;;;;23.92;13.77;;;;;;;;;;4300621;33;20029;-79
2022/01/11 15:51:37;;;;;;;33.40;14.60;;;;;;;;;;4230471;33;20388;-79
2022/01/11 15:54:28;;;;;;;25.77;14.70;;;;;;;;;;4256670;33;20081;-81
2022/01/11 15:56:58;;;;;;;30.50;15.07;;;;;;;;;;4232560;33;20049;-80
2022/01/11 15:59:25;;;;;;;28.98;14.52;;;;;;;;;;4281911;33;20434;-80
2022/01/11 16:02:36;;;;;;;27.40;13.93;;;;;;;;;;4304993;33;20454;-80
2022/01/11 16:04:59;;;;;;;30.85;14.95;;;;;;;;;;4230208;33;20038;-79
2022/01/11 16:07:33;;;;;;;;;;;;;;;;;;4303644;33;20025;-81
2022/01/11 16:10:01;;;;;;;36.65;16.17;;;;;;;;;;4310607;33;19977;-81
2022/01/11 16:12:35;;;;;;;35.55;15.30;;;;;;;;;;4347977;33;20412;-80
2022/01/11 16:15:00;;;;;;;32.88;16.33;;;;;;;;;;4350423;33;20074;-79
2022/01/11 16:17:26;;;;;;;;;;;;;;;;;;4349709;33;20366;-80
2022/01/11 16:19:57;;;;;;;29.92;15.15;;;;;;;;;;4348991;33;19942;-79
2022/01/11 16:22:44;;;;;;;29.00;14.63;;;;;;;;;;4347565;33;20059;-80
2022/01/11 16:25:11;;;;;;;28.70;14.02;;;;;;;;;;4348606;33;20102;-79
2022/01/11 16:28:08;;;;;;;;;;;;;;;;;;;;;
2022/01/11 16:30:40;;;;;;;31.92;14.60;;;;;;;;;;4345881;33;20035;-80
2022/01/11 16:33:09;;;;;;;26.73;14.93;;;;;;;;;;4345002;33;20012;-78
2022/01/11 16:35:45;;;;;;;28.60;14.38;;;;;;;;;;4346055;33;20024;-79
2022/01/11 16:38:12;;;;;;;29.50;14.40;;;;;;;;;;4346521;33;20016;-79
2022/01/11 16:43:44;;;;;;;25.25;13.20;;;;;;;;;;4345798;33;20060;-78
2022/01/11 16:46:08;;;;;;;30.62;15.93;;;;;;;;;;4345434;33;20028;-79
2022/01/11 16:48:34;;;;;;;;;;;;;;;;;;4346113;33;20074;-79
2022/01/11 16:51:02;;;;;;;29.58;14.98;;;;;;;;;;4346023;33;19935;-81
2022/01/11 16:54:11;;;;;;;30.92;16.80;;;;;;;;;;4345351;33;20077;-80
2022/01/11 16:59:26;;;;;;;32.80;16.98;;;;;;;;;;4313578;33;20091;-80
2022/01/11 17:02:22;;;;;;;;;;;;;;;;;;;;;
2022/01/11 17:04:45;;;;;;;32.10;16.65;;;;;;;;;;4270533;33;20045;-80
2022/01/11 17:07:13;;;;;;;31.12;16.17;;;;;;;;;;4269555;33;20038;-79
2022/01/11 17:09:39;;;;;;;29.12;14.43;;;;;;;;;;4294992;33;20482;-79
2022/01/11 17:12:04;;;;;;;;;;;;;;;;;;4345653;33;20028;-79
2022/01/11 17:14:31;;;;;;;33.08;15.82;;;;;;;;;;4345694;33;19944;-79
2022/01/11 17:17:28;;;;;;;32.97;15.55;;;;;;;;;;4345036;33;20020;-79
2022/01/11 17:26:04;;;;;;;28.40;14.65;;;;;;;;;;4324645;33;20107;-79
2022/01/11 17:28:32;;;;;;;;;;;;;;;;;;4341633;33;20048;-80
2022/01/11 17:31:00;;;;;;;30.45;15.00;;;;;;;;;;4348590;33;19938;-79
2022/01/11 17:33:26;;;;;;;34.33;16.20;;;;;;;;;;4347983;33;20023;-79
2022/01/11 17:36:10;;;;;;;;;;;;;;;;;;4348746;33;20024;-80
2022/01/11 17:38:36;;;;;;;28.70;15.45;;;;;;;;;;4347600;33;19931;-79
2022/01/11 17:41:02;;;;;;;;;;;;;;;;;;4348020;33;20362;-79
2022/01/11 17:43:30;;;;;;;32.38;16.08;;;;;;;;;;4348175;33;20281;-79
2022/01/11 17:46:32;;;;;;;;;;;;;;;;;;;;;
2022/01/11 17:48:46;;;;;;;29.95;15.10;;;;;;;;;;4344420;33;20043;-80
2022/01/11 17:54:03;;;;;;;34.22;15.00;;;;;;;;;;4346779;33;19990;-79
2022/01/11 17:57:14;;;;;;;;;;;;;;;;;;;;;
2022/01/11 18:00:15;;;;;;;;;;;;;;;;;;;;;
2022/01/11 18:03:44;;;;;;;32.40;16.50;;;;;;;;;;4326798;33;20043;-79
2022/01/11 18:09:10;;;;;;;31.92;16.67;;;;;;;;;;4258496;33;20479;-81
2022/01/11 18:12:18;;;;;;;32.92;18.15;;;;;;;;;;4258655;33;20049;-81
2022/01/11 18:18:14;;;;;;;;;;;;;;;;;;;;;
2022/01/11 18:21:37;;;;;;;;;;;;;;;;;;;;;
2022/01/11 18:53:03;;;;;;;;;;;;;;;;;;;;;
2022/01/11 19:08:17;;;;;;;29.25;16.55;;;;;;;;;;4148183;34;20062;-81
2022/01/11 19:11:33;;;;;;;;;;;;;;;;;;;;;
2022/01/11 19:32:57;;;;;;;32.72;16.42;;;;;;;;;;4229613;34;20455;-83
2022/01/11 19:39:07;;;;;;;;;;;;;;;;;;;;;
2022/01/11 20:33:13;;;;;;;35.92;18.45;;;;;;;;;;4093823;35;20048;-83
2022/01/11 20:58:23;;;;;;;40.60;19.75;;;;;;;;;;4084969;34;20029;-81
2022/01/11 21:07:24;;;;;;;41.90;21.95;;;;;;;;;;4143098;34;20360;-81
2022/01/11 21:23:16;;;;;;;;;;;;;;;;;;;;;
2022/01/11 21:26:12;;;;;;;54.33;27.60;;;;;;;;;;4184221;34;20031;-81
2022/01/11 21:32:21;;;;;;;68.07;30.67;;;;;;;;;;4189290;34;20375;-81
2022/01/11 22:08:35;;;;;;;;;;;;;;;;;;;;;
2022/01/11 22:14:26;;;;;;;;;;;;;;;;;;;;;
2022/01/11 22:26:33;;;;;;;115.12;39.47;;;;;;;;;;4244308;33;20022;-80
2022/01/11 22:41:48;;;;;;;122.22;43.63;;;;;;;;;;4222162;34;20473;-80
2022/01/11 22:47:54;;;;;;;135.00;45.58;;;;;;;;;;4230024;34;20095;-80
2022/01/11 23:10:07;;;;;;;;;;;;;;;;;;;;;
2022/01/11 23:12:40;;;;;;;124.45;44.75;;;;;;;;;;4183683;34;20127;-80
2022/01/11 23:18:58;;;;;;;;;;;;;;;;;;;;;
2022/01/11 23:35:29;;;;;;;137.12;50.35;;;;;;;;;;4269702;33;20047;-81
